createdAt,value
2023-05-18T00:00:11.217Z,102944.03
2023-05-18T00:02:38.688Z,102940.44
2023-05-18T00:05:06.935Z,102945.69
2023-05-18T00:07:34.566Z,102935.03
2023-05-18T00:10:02.011Z,102938.63
2023-05-18T00:12:29.849Z,102936.84
2023-05-18T00:14:57.136Z,102936.84
2023-05-18T00:17:24.666Z,102941.19
2023-05-18T00:19:52.193Z,102947.41
2023-05-18T00:22:19.780Z,102943.97
2023-05-18T00:24:48.300Z,102943.16
2023-05-18T00:27:15.618Z,102946.66
2023-05-18T00:29:43.118Z,102943.19
2023-05-18T00:32:12.967Z,102955.50
2023-05-18T00:34:40.568Z,102949.38
2023-05-18T00:37:08.191Z,102948.44
2023-05-18T00:39:38.679Z,102953.69
2023-05-18T00:42:07.425Z,102955.34
2023-05-18T00:44:34.824Z,102951.84
2023-05-18T00:47:02.173Z,102946.59
2023-05-18T00:49:29.954Z,102956.28
2023-05-18T00:51:57.535Z,102947.47
2023-05-18T00:54:26.402Z,102936.97
2023-05-18T00:56:54.060Z,102936.06
2023-05-18T00:59:22.484Z,102943.16
2023-05-18T01:01:50.669Z,102943.97
2023-05-18T01:04:18.090Z,102947.47
2023-05-18T01:06:46.611Z,102943.06
2023-05-18T01:09:15.025Z,102948.31
2023-05-18T01:12:18.912Z,102945.69
2023-05-18T01:15:09.335Z,102947.47
2023-05-18T01:18:05.343Z,102950.19
2023-05-18T01:20:39.702Z,102946.66
2023-05-18T01:23:15.072Z,102949.38
2023-05-18T01:25:54.990Z,102945.00
2023-05-18T01:28:30.991Z,102941.47
2023-05-18T01:30:59.149Z,102941.47
2023-05-18T01:33:26.832Z,102946.72
2023-05-18T01:35:57.403Z,102944.91
2023-05-18T01:38:27.623Z,102945.78
2023-05-18T01:41:21.611Z,102946.66
2023-05-18T01:44:04.998Z,102949.38
2023-05-18T01:46:40.173Z,102953.78
2023-05-18T01:49:17.330Z,102943.19
2023-05-18T01:51:47.067Z,102952.00
2023-05-18T01:54:17.715Z,102945.81
2023-05-18T01:56:45.519Z,102957.16
2023-05-18T01:59:14.973Z,102956.31
2023-05-18T02:01:42.455Z,102952.81
2023-05-18T02:04:10.717Z,102952.88
2023-05-18T02:06:38.553Z,102945.00
2023-05-18T02:09:07.204Z,102953.78
2023-05-18T02:11:34.941Z,102951.03
2023-05-18T02:14:02.532Z,102949.28
2023-05-18T02:16:30.412Z,102948.41
2023-05-18T02:19:00.258Z,102947.56
2023-05-18T02:21:27.710Z,102958.94
2023-05-18T02:23:55.166Z,102961.56
2023-05-18T02:26:23.933Z,102959.81
2023-05-18T02:28:54.810Z,102958.06
2023-05-18T02:31:22.314Z,102955.34
2023-05-18T02:33:49.595Z,102956.13
2023-05-18T02:36:18.764Z,102958.75
2023-05-18T02:38:46.439Z,102957.91
2023-05-18T02:41:13.912Z,102950.81
2023-05-18T02:43:41.537Z,102956.94
2023-05-18T02:46:09.130Z,102951.69
2023-05-18T02:48:36.525Z,102957.91
2023-05-18T02:51:03.885Z,102961.38
2023-05-18T02:53:32.023Z,102958.59
2023-05-18T02:56:04.953Z,102962.16
2023-05-18T02:58:44.855Z,102965.59
2023-05-18T03:01:27.172Z,102955.84
2023-05-18T03:03:57.744Z,102965.44
2023-05-18T03:06:27.108Z,102959.22
2023-05-18T03:08:57.009Z,102964.38
2023-05-18T03:11:32.389Z,102959.81
2023-05-18T03:13:59.704Z,102972.94
2023-05-18T03:16:28.802Z,102962.34
2023-05-18T03:18:59.468Z,102963.34
2023-05-18T03:21:38.776Z,102959.97
2023-05-18T03:24:07.344Z,102959.06
2023-05-18T03:26:38.804Z,102959.06
2023-05-18T03:29:06.197Z,102965.84
2023-05-18T03:31:33.921Z,102971.97
2023-05-18T03:34:03.036Z,102966.72
2023-05-18T03:36:33.283Z,102971.16
2023-05-18T03:39:00.570Z,102975.50
2023-05-18T03:41:29.956Z,102970.31
2023-05-18T03:43:57.886Z,102968.53
2023-05-18T03:46:25.310Z,102966.88
2023-05-18T03:48:54.810Z,102961.63
2023-05-18T03:51:29.666Z,102968.66
2023-05-18T03:53:57.448Z,102968.63
2023-05-18T03:56:25.042Z,102978.06
2023-05-18T03:58:52.414Z,102977.22
2023-05-18T04:01:19.836Z,102970.25
2023-05-18T04:03:47.726Z,102969.44
2023-05-18T04:06:15.256Z,102974.84
2023-05-18T04:08:43.343Z,102973.22
2023-05-18T04:11:11.789Z,102963.59
2023-05-18T04:13:41.996Z,102969.81
2023-05-18T04:16:13.535Z,102969.00
2023-05-18T04:18:41.813Z,102981.38
2023-05-18T04:21:09.611Z,102970.03
2023-05-18T04:23:38.926Z,102983.22
2023-05-18T04:26:07.090Z,102985.81
2023-05-18T04:28:38.084Z,102993.69
2023-05-18T04:31:06.086Z,102980.56
2023-05-18T04:33:34.416Z,102990.28
2023-05-18T04:36:05.055Z,102986.81
2023-05-18T04:38:34.662Z,102994.84
2023-05-18T04:41:06.689Z,102996.88
2023-05-18T04:43:34.415Z,102985.72
2023-05-18T04:46:02.301Z,102987.72
2023-05-18T04:48:30.961Z,102994.09
2023-05-18T04:50:58.273Z,102997.81
2023-05-18T04:53:27.607Z,102992.84
2023-05-18T04:55:55.020Z,102997.50
2023-05-18T04:58:22.686Z,103005.63
2023-05-18T05:00:50.541Z,103010.19
2023-05-18T05:03:18.036Z,103003.41
2023-05-18T05:05:45.697Z,103013.22
2023-05-18T05:08:13.407Z,103001.19
2023-05-18T05:10:40.876Z,103010.94
2023-05-18T05:13:10.161Z,103008.44
2023-05-18T05:15:37.677Z,103008.63
2023-05-18T05:18:05.155Z,103015.00
2023-05-18T05:20:32.570Z,103011.53
2023-05-18T05:22:59.961Z,103015.81
2023-05-18T05:25:28.095Z,103015.00
2023-05-18T05:27:55.610Z,103031.75
2023-05-18T05:30:23.061Z,103027.31
2023-05-18T05:32:50.715Z,103036.94
2023-05-18T05:35:18.454Z,103030.78
2023-05-18T05:37:46.870Z,103030.66
2023-05-18T05:40:15.114Z,103028.16
2023-05-18T05:42:45.443Z,103020.41
2023-05-18T05:45:13.471Z,103027.31
2023-05-18T05:47:49.510Z,103031.56
2023-05-18T05:50:18.516Z,103030.66
2023-05-18T05:52:47.994Z,103031.75
2023-05-18T05:55:15.925Z,103041.56
2023-05-18T05:57:43.298Z,103043.41
2023-05-18T06:00:13.110Z,103040.94
2023-05-18T06:02:51.965Z,103045.41
2023-05-18T06:05:31.237Z,103042.94
2023-05-18T06:07:59.167Z,103036.31
2023-05-18T06:10:26.443Z,103040.31
2023-05-18T06:12:54.199Z,103045.25
2023-05-18T06:15:25.624Z,103039.59
2023-05-18T06:17:53.022Z,103040.16
2023-05-18T06:20:20.653Z,103039.78
2023-05-18T06:22:48.014Z,103042.94
2023-05-18T06:25:22.413Z,103047.81
2023-05-18T06:28:15.973Z,103041.97
2023-05-18T06:30:49.568Z,103051.75
2023-05-18T06:33:23.724Z,103051.75
2023-05-18T06:35:51.332Z,103047.59
2023-05-18T06:38:18.730Z,103047.66
2023-05-18T06:40:48.029Z,103050.28
2023-05-18T06:43:15.680Z,103052.88
2023-05-18T06:45:48.181Z,103047.00
2023-05-18T06:48:27.890Z,103047.56
2023-05-18T06:50:56.218Z,103054.72
2023-05-18T06:53:23.626Z,103047.84
2023-05-18T06:55:51.216Z,103049.13
2023-05-18T06:58:18.717Z,103048.66
2023-05-18T07:00:49.456Z,103042.09
2023-05-18T07:03:17.590Z,103045.94
2023-05-18T07:05:45.030Z,103050.72
2023-05-18T07:08:12.464Z,103044.00
2023-05-18T07:10:40.207Z,103044.38
2023-05-18T07:13:07.576Z,103054.78
2023-05-18T07:15:35.200Z,103043.09
2023-05-18T07:18:03.841Z,103043.56
2023-05-18T07:20:31.428Z,103048.47
2023-05-18T07:22:58.722Z,103053.81
2023-05-18T07:25:26.320Z,103054.09
2023-05-18T07:27:54.936Z,103057.44
2023-05-18T07:30:23.147Z,103060.50
2023-05-18T07:32:51.455Z,103057.41
2023-05-18T07:35:22.862Z,103051.78
2023-05-18T07:37:52.171Z,103049.56
2023-05-18T07:40:20.076Z,103056.47
2023-05-18T07:42:47.526Z,103054.69
2023-05-18T07:45:14.843Z,103056.06
2023-05-18T07:47:42.246Z,103059.28
2023-05-18T07:50:10.248Z,103056.22
2023-05-18T07:52:37.570Z,103054.06
2023-05-18T07:55:05.709Z,103057.81
2023-05-18T07:57:35.528Z,103058.59
2023-05-18T08:00:06.535Z,103062.56
2023-05-18T08:02:40.036Z,103067.25
2023-05-18T08:05:09.716Z,103065.56
2023-05-18T08:07:37.871Z,103069.53
2023-05-18T08:10:06.172Z,103068.34
2023-05-18T08:12:33.610Z,103067.69
2023-05-18T08:15:00.920Z,103068.91
2023-05-18T08:17:28.328Z,103060.13
2023-05-18T08:19:57.012Z,103067.13
2023-05-18T08:22:24.380Z,103065.66
2023-05-18T08:24:52.111Z,103061.31
2023-05-18T08:27:20.115Z,103063.75
2023-05-18T08:29:47.538Z,103058.56
2023-05-18T08:32:15.386Z,103057.72
2023-05-18T08:34:44.098Z,103053.38
2023-05-18T08:37:11.563Z,103056.06
2023-05-18T08:39:39.043Z,103054.16
2023-05-18T08:42:12.631Z,103055.03
2023-05-18T08:44:52.266Z,103054.16
2023-05-18T08:47:25.956Z,103055.25
2023-05-18T08:49:56.896Z,103052.47
2023-05-18T08:52:28.108Z,103061.84
2023-05-18T08:55:00.269Z,103056.22
2023-05-18T08:57:32.864Z,103060.22
2023-05-18T09:00:01.865Z,103056.25
2023-05-18T09:02:29.817Z,103059.78
2023-05-18T09:04:58.284Z,103057.06
2023-05-18T09:07:27.650Z,103061.22
2023-05-18T09:09:56.475Z,103061.28
2023-05-18T09:12:24.837Z,103063.31
2023-05-18T09:14:53.404Z,103062.53
2023-05-18T09:17:22.957Z,103066.13
2023-05-18T09:19:50.378Z,103054.94
2023-05-18T09:22:18.020Z,103060.75
2023-05-18T09:24:45.601Z,103052.56
2023-05-18T09:27:13.011Z,103053.97
2023-05-18T09:29:55.988Z,103050.63
2023-05-18T09:32:24.891Z,103057.22
2023-05-18T09:34:53.968Z,103053.03
2023-05-18T09:37:22.650Z,103052.34
2023-05-18T09:40:08.202Z,103044.91
2023-05-18T09:42:41.282Z,103046.44
2023-05-18T09:45:23.542Z,103056.19
2023-05-18T09:47:51.763Z,103051.16
2023-05-18T09:50:25.024Z,103045.28
2023-05-18T09:52:52.409Z,103039.25
2023-05-18T09:55:20.940Z,103041.63
2023-05-18T09:57:50.854Z,103048.28
2023-05-18T10:00:22.263Z,103044.06
2023-05-18T10:02:52.815Z,103049.59
2023-05-18T10:05:28.315Z,103045.22
2023-05-18T10:07:56.946Z,103053.22
2023-05-18T10:10:27.628Z,103052.47
2023-05-18T10:12:55.633Z,103044.75
2023-05-18T10:15:23.931Z,103039.72
2023-05-18T10:17:55.616Z,103035.44
2023-05-18T10:20:26.640Z,103035.56
2023-05-18T10:22:56.389Z,103033.00
2023-05-18T10:25:26.674Z,103037.38
2023-05-18T10:28:00.862Z,103030.22
2023-05-18T10:30:28.665Z,103029.25
2023-05-18T10:32:58.221Z,103032.72
2023-05-18T10:35:28.609Z,103031.88
2023-05-18T10:37:59.274Z,103029.28
2023-05-18T10:40:28.526Z,103024.94
2023-05-18T10:42:58.826Z,103027.78
2023-05-18T10:45:26.901Z,103029.66
2023-05-18T10:47:55.832Z,103029.88
2023-05-18T10:50:23.993Z,103025.31
2023-05-18T10:52:52.134Z,103024.44
2023-05-18T10:55:20.046Z,103030.03
2023-05-18T10:57:52.704Z,103028.91
2023-05-18T11:00:20.545Z,103037.75
2023-05-18T11:02:50.715Z,103033.31
2023-05-18T11:05:25.218Z,103027.22
2023-05-18T11:08:05.001Z,103025.13
2023-05-18T11:10:48.560Z,103028.53
2023-05-18T11:13:16.223Z,103029.44
2023-05-18T11:15:56.361Z,103030.59
2023-05-18T11:18:46.713Z,103027.19
2023-05-18T11:21:21.540Z,103019.19
2023-05-18T11:24:21.713Z,103028.31
2023-05-18T11:26:50.418Z,103026.66
2023-05-18T11:29:18.773Z,103026.63
2023-05-18T11:31:48.739Z,103030.63
2023-05-18T11:34:49.936Z,103023.84
2023-05-18T11:37:38.336Z,103019.94
2023-05-18T11:40:13.567Z,103023.78
2023-05-18T11:42:41.307Z,103012.19
2023-05-18T11:45:11.209Z,103015.31
2023-05-18T11:47:41.168Z,103009.16
2023-05-18T11:50:12.353Z,103010.22
2023-05-18T11:52:51.938Z,103004.19
2023-05-18T11:55:21.003Z,103012.16
2023-05-18T11:57:53.010Z,103012.94
2023-05-18T12:00:21.614Z,103007.63
2023-05-18T12:02:49.821Z,103009.47
2023-05-18T12:05:17.603Z,103006.63
2023-05-18T12:07:52.380Z,103002.72
2023-05-18T12:10:21.799Z,103000.69
2023-05-18T12:12:53.112Z,102997.06
2023-05-18T12:15:25.219Z,102999.00
2023-05-18T12:17:52.812Z,102993.19
2023-05-18T12:20:22.180Z,102993.50
2023-05-18T12:22:53.447Z,102989.13
2023-05-18T12:25:25.968Z,102991.72
2023-05-18T12:27:54.980Z,102992.53
2023-05-18T12:30:24.868Z,102988.13
2023-05-18T12:32:57.515Z,102979.22
2023-05-18T12:35:26.122Z,102982.81
2023-05-18T12:37:58.192Z,102984.75
2023-05-18T12:40:26.037Z,102979.63
2023-05-18T12:43:00.881Z,102962.81
2023-05-18T12:45:36.346Z,102970.72
2023-05-18T12:48:10.888Z,102980.31
2023-05-18T12:50:53.471Z,102968.00
2023-05-18T12:53:20.955Z,102977.03
2023-05-18T12:55:59.831Z,102976.00
2023-05-18T12:58:29.834Z,102977.50
2023-05-18T13:00:57.158Z,102987.34
2023-05-18T13:03:24.668Z,102977.69
2023-05-18T13:06:09.933Z,102970.59
2023-05-18T13:08:38.340Z,102975.13
2023-05-18T13:11:14.306Z,102972.41
2023-05-18T13:14:06.685Z,102964.41
2023-05-18T13:16:37.440Z,102956.38
2023-05-18T13:19:10.633Z,102971.41
2023-05-18T13:21:38.314Z,102961.63
2023-05-18T13:24:06.056Z,102960.53
2023-05-18T13:26:34.054Z,102952.50
2023-05-18T13:29:02.064Z,102950.38
2023-05-18T13:31:33.067Z,102947.47
2023-05-18T13:34:05.016Z,102942.91
2023-05-18T13:36:35.782Z,102945.31
2023-05-18T13:39:07.688Z,102943.34
2023-05-18T13:41:36.837Z,102946.88
2023-05-18T13:44:04.219Z,102946.00
2023-05-18T13:46:32.074Z,102947.69
2023-05-18T13:48:59.624Z,102949.22
2023-05-18T13:51:26.987Z,102943.81
2023-05-18T13:53:54.468Z,102934.13
2023-05-18T13:56:22.599Z,102946.50
2023-05-18T13:58:50.236Z,102927.69
2023-05-18T14:01:18.142Z,102934.66
2023-05-18T14:03:45.684Z,102930.16
2023-05-18T14:06:13.738Z,102929.28
2023-05-18T14:08:41.530Z,102928.31
2023-05-18T14:11:09.734Z,102914.22
2023-05-18T14:13:40.086Z,102917.03
2023-05-18T14:16:08.040Z,102928.41
2023-05-18T14:18:36.030Z,102926.59
2023-05-18T14:21:04.174Z,102916.97
2023-05-18T14:23:31.844Z,102923.31
2023-05-18T14:26:02.158Z,102923.44
2023-05-18T14:28:31.614Z,102925.34
2023-05-18T14:30:59.544Z,102927.19
2023-05-18T14:33:27.274Z,102926.25
2023-05-18T14:35:56.152Z,102916.47
2023-05-18T14:38:26.962Z,102917.31
2023-05-18T14:40:54.293Z,102925.38
2023-05-18T14:43:22.100Z,102922.72
2023-05-18T14:45:56.865Z,102926.09
2023-05-18T14:48:38.909Z,102930.31
2023-05-18T14:51:06.422Z,102917.94
2023-05-18T14:53:37.037Z,102915.31
2023-05-18T14:56:06.523Z,102913.44
2023-05-18T14:58:33.878Z,102917.63
2023-05-18T15:01:01.370Z,102908.50
2023-05-18T15:03:29.477Z,102901.34
2023-05-18T15:05:56.994Z,102906.69
2023-05-18T15:08:24.842Z,102900.50
2023-05-18T15:10:52.584Z,102904.91
2023-05-18T15:13:20.434Z,102913.59
2023-05-18T15:15:48.788Z,102905.47
2023-05-18T15:18:16.592Z,102906.22
2023-05-18T15:20:44.047Z,102901.63
2023-05-18T15:23:11.577Z,102898.00
2023-05-18T15:25:42.177Z,102898.88
2023-05-18T15:28:11.396Z,102892.72
2023-05-18T15:30:38.968Z,102897.91
2023-05-18T15:33:06.472Z,102898.75
2023-05-18T15:35:34.978Z,102887.19
2023-05-18T15:38:03.138Z,102885.47
2023-05-18T15:40:31.078Z,102885.41
2023-05-18T15:43:00.084Z,102889.00
2023-05-18T15:45:27.862Z,102894.34
2023-05-18T15:47:55.299Z,102897.91
2023-05-18T15:50:22.989Z,102889.94
2023-05-18T15:52:50.479Z,102894.34
2023-05-18T15:55:18.187Z,102883.88
2023-05-18T15:57:45.708Z,102888.66
2023-05-18T16:00:14.664Z,102881.81
2023-05-18T16:02:42.103Z,102892.59
2023-05-18T16:05:16.018Z,102880.28
2023-05-18T16:07:43.845Z,102884.66
2023-05-18T16:10:11.498Z,102892.59
2023-05-18T16:12:38.892Z,102890.75
2023-05-18T16:15:06.758Z,102889.91
2023-05-18T16:17:34.431Z,102891.63
2023-05-18T16:20:03.878Z,102889.75
2023-05-18T16:22:31.505Z,102884.28
2023-05-18T16:24:59.107Z,102887.72
2023-05-18T16:27:26.476Z,102884.88
2023-05-18T16:29:54.604Z,102884.72
2023-05-18T16:32:21.904Z,102876.81
2023-05-18T16:34:49.322Z,102889.97
2023-05-18T16:37:17.006Z,102890.94
2023-05-18T16:39:44.382Z,102893.25
2023-05-18T16:42:12.411Z,102883.06
2023-05-18T16:44:40.003Z,102883.03
2023-05-18T16:47:07.661Z,102887.47
2023-05-18T16:49:34.988Z,102891.84
2023-05-18T16:52:02.293Z,102890.00
2023-05-18T16:54:29.887Z,102887.25
2023-05-18T16:56:57.277Z,102895.09
2023-05-18T16:59:24.602Z,102880.88
2023-05-18T17:01:52.275Z,102887.81
2023-05-18T17:04:19.806Z,102888.66
2023-05-18T17:06:47.321Z,102884.16
2023-05-18T17:09:16.446Z,102879.69
2023-05-18T17:11:44.201Z,102884.91
2023-05-18T17:14:11.938Z,102881.34
2023-05-18T17:16:40.471Z,102890.97
2023-05-18T17:19:08.435Z,102883.00
2023-05-18T17:21:36.660Z,102883.78
2023-05-18T17:24:04.433Z,102880.16
2023-05-18T17:26:33.442Z,102875.59
2023-05-18T17:29:00.839Z,102881.53
2023-05-18T17:31:28.925Z,102889.31
2023-05-18T17:33:56.439Z,102886.41
2023-05-18T17:36:25.909Z,102876.53
2023-05-18T17:38:53.630Z,102884.38
2023-05-18T17:41:23.031Z,102882.44
2023-05-18T17:43:50.709Z,102877.81
2023-05-18T17:46:18.792Z,102880.28
2023-05-18T17:48:46.444Z,102887.19
2023-05-18T17:51:15.381Z,102886.94
2023-05-18T17:53:43.052Z,102882.38
2023-05-18T17:56:11.001Z,102883.91
2023-05-18T17:58:39.666Z,102873.94
2023-05-18T18:01:10.060Z,102875.44
2023-05-18T18:03:38.001Z,102879.63
2023-05-18T18:06:05.798Z,102885.59
2023-05-18T18:08:33.351Z,102885.47
2023-05-18T18:11:00.908Z,102887.22
2023-05-18T18:13:28.273Z,102884.34
2023-05-18T18:15:55.781Z,102889.50
2023-05-18T18:18:23.442Z,102885.78
2023-05-18T18:20:51.840Z,102896.25
2023-05-18T18:23:19.197Z,102894.31
2023-05-18T18:25:46.983Z,102888.13
2023-05-18T18:28:14.784Z,102889.88
2023-05-18T18:30:44.504Z,102886.22
2023-05-18T18:33:12.591Z,102890.63
2023-05-18T18:35:40.974Z,102894.06
2023-05-18T18:38:09.090Z,102893.88
2023-05-18T18:40:36.470Z,102895.47
2023-05-18T18:43:03.862Z,102893.56
2023-05-18T18:45:32.135Z,102897.75
2023-05-18T18:48:00.179Z,102894.97
2023-05-18T18:50:28.951Z,102895.78
2023-05-18T18:52:57.757Z,102903.56
2023-05-18T18:55:25.370Z,102909.59
2023-05-18T18:57:53.190Z,102903.25
2023-05-18T19:00:21.615Z,102903.97
2023-05-18T19:02:48.992Z,102905.66
2023-05-18T19:05:21.788Z,102911.75
2023-05-18T19:07:55.163Z,102910.81
2023-05-18T19:10:23.618Z,102915.06
2023-05-18T19:12:51.072Z,102909.59
2023-05-18T19:15:18.516Z,102913.03
2023-05-18T19:17:46.018Z,102925.13
2023-05-18T19:20:13.795Z,102920.72
2023-05-18T19:22:41.395Z,102925.97
2023-05-18T19:25:09.171Z,102927.50
2023-05-18T19:27:36.639Z,102924.81
2023-05-18T19:30:05.829Z,102934.47
2023-05-18T19:32:33.402Z,102927.28
2023-05-18T19:35:01.058Z,102935.88
2023-05-18T19:37:28.413Z,102936.66
2023-05-18T19:39:55.864Z,102937.41
2023-05-18T19:42:23.287Z,102937.28
2023-05-18T19:44:50.705Z,102940.69
2023-05-18T19:47:17.952Z,102935.28
2023-05-18T19:49:45.338Z,102936.09
2023-05-18T19:52:12.764Z,102937.75
2023-05-18T19:54:40.051Z,102942.97
2023-05-18T19:57:07.447Z,102937.56
2023-05-18T19:59:34.883Z,102941.88
2023-05-18T20:02:05.263Z,102947.03
2023-05-18T20:04:33.762Z,102948.72
2023-05-18T20:07:01.326Z,102950.50
2023-05-18T20:09:31.856Z,102947.81
2023-05-18T20:11:59.208Z,102949.53
2023-05-18T20:14:27.070Z,102955.63
2023-05-18T20:16:56.265Z,102952.91
2023-05-18T20:19:24.388Z,102948.44
2023-05-18T20:21:51.903Z,102950.13
2023-05-18T20:24:19.355Z,102944.75
2023-05-18T20:26:48.691Z,102947.25
2023-05-18T20:29:17.356Z,102941.94
2023-05-18T20:31:44.809Z,102950.63
2023-05-18T20:34:12.203Z,102953.19
2023-05-18T20:36:39.537Z,102949.53
2023-05-18T20:39:07.374Z,102949.53
2023-05-18T20:41:40.302Z,102947.66
2023-05-18T20:44:11.300Z,102951.13
2023-05-18T20:46:42.835Z,102956.31
2023-05-18T20:49:12.658Z,102955.44
2023-05-18T20:51:39.950Z,102965.13
2023-05-18T20:54:07.562Z,102966.84
2023-05-18T20:56:36.283Z,102967.78
2023-05-18T20:59:06.155Z,102958.91
2023-05-18T21:01:39.233Z,102968.53
2023-05-18T21:04:07.361Z,102960.56
2023-05-18T21:06:40.328Z,102953.44
2023-05-18T21:09:08.144Z,102962.19
2023-05-18T21:11:35.925Z,102954.22
2023-05-18T21:14:03.496Z,102959.41
2023-05-18T21:16:31.071Z,102948.75
2023-05-18T21:18:58.490Z,102952.25
2023-05-18T21:21:25.913Z,102953.94
2023-05-18T21:23:53.309Z,102953.94
2023-05-18T21:26:21.897Z,102953.91
2023-05-18T21:28:49.195Z,102959.09
2023-05-18T21:31:16.632Z,102954.63
2023-05-18T21:33:47.837Z,102950.97
2023-05-18T21:36:35.508Z,102958.78
2023-05-18T21:39:06.422Z,102956.97
2023-05-18T21:41:35.457Z,102956.97
2023-05-18T21:44:03.330Z,102945.50
2023-05-18T21:46:30.861Z,102956.88
2023-05-18T21:48:58.665Z,102960.31
2023-05-18T21:51:26.045Z,102955.91
2023-05-18T21:53:53.345Z,102956.72
2023-05-18T21:56:21.713Z,102959.28
2023-05-18T21:58:48.923Z,102956.59
2023-05-18T22:01:19.766Z,102960.06
2023-05-18T22:03:48.052Z,102967.00
2023-05-18T22:06:16.346Z,102963.44
2023-05-18T22:08:44.557Z,102965.19
2023-05-18T22:11:12.424Z,102957.28
2023-05-18T22:13:40.108Z,102959.91
2023-05-18T22:16:07.999Z,102958.13
2023-05-18T22:18:35.543Z,102958.13
2023-05-18T22:21:03.090Z,102958.97
2023-05-18T22:23:30.390Z,102959.81
2023-05-18T22:25:57.766Z,102955.28
2023-05-18T22:28:25.103Z,102957.03
2023-05-18T22:30:53.509Z,102960.47
2023-05-18T22:33:23.659Z,102956.88
2023-05-18T22:35:50.913Z,102959.44
2023-05-18T22:38:20.812Z,102960.31
2023-05-18T22:40:54.100Z,102955.94
2023-05-18T22:43:22.132Z,102947.97
2023-05-18T22:45:49.849Z,102947.97
2023-05-18T22:48:17.206Z,102957.66
2023-05-18T22:50:45.834Z,102951.53
2023-05-18T22:53:14.645Z,102947.97
2023-05-18T22:55:42.247Z,102962.84
2023-05-18T22:58:09.540Z,102955.84
2023-05-18T23:00:36.996Z,102949.72
2023-05-18T23:03:06.456Z,102950.56
2023-05-18T23:05:34.147Z,102949.63
2023-05-18T23:08:02.908Z,102947.84
2023-05-18T23:10:30.792Z,102953.13
2023-05-18T23:12:58.554Z,102940.78
2023-05-18T23:15:26.217Z,102950.41
2023-05-18T23:17:56.368Z,102949.56
2023-05-18T23:20:23.725Z,102948.69
2023-05-18T23:22:51.875Z,102948.69
2023-05-18T23:25:19.876Z,102944.25
2023-05-18T23:27:47.230Z,102941.56
2023-05-18T23:30:14.676Z,102944.13
2023-05-18T23:32:42.354Z,102943.22
2023-05-18T23:35:13.217Z,102944.13
2023-05-18T23:37:42.263Z,102943.16
2023-05-18T23:40:12.385Z,102945.84
2023-05-18T23:42:40.174Z,102939.72
2023-05-18T23:45:08.246Z,102937.09
2023-05-18T23:47:37.016Z,102931.81
2023-05-18T23:50:05.568Z,102945.94
2023-05-18T23:52:34.547Z,102941.41
2023-05-18T23:55:04.210Z,102940.53
2023-05-18T23:57:31.959Z,102944.91
